Airfield :
LOGIN :

Register | Disclaimer

   EN    FR    IT 

 










Legend :    VFR   Marginal VFR   IFR   Intensive IFR   Very Intensive IFR
Visi :
Ceiling :
>= 8 km
>= 3000ft
5 to 8 km
1000 to 3000 ft
1500m to 5 km
500 to 1000 ft
800 to 1500m
200 to 500 ft
< 800m
< 200 ft
Symbols :   Thunderstorms  Fog  Heavy snow  Heavy precipitations  Wind > 20 kt
SIGMETs :     Misc.  Thunderstorms  Icing  Turbulence  Mountain Waves  Volcanic Ashes







- Airport Elevation : 1367 ft
- IATA code : FDH


EDNY - Friedrichshafen

EXPIRED METARs :
  • 241420Z 22007KT 9999 FEW045 BKN054 25/16 Q1017
  • 241350Z 21008KT 9999 FEW048 26/16 Q1017
  • 241320Z 21009KT 9999 FEW043 26/15 Q1018
  • 241250Z 23009KT 210V270 9999 BKN042 25/15 Q1018
  • 241220Z 25007KT 210V320 9999 BKN042 24/15 Q1018
  • 241150Z 26007KT 9999 BKN041 24/15 Q1019

TAF TAF EDNY
Valid from the 24 at 12:00 until the 25 at 12:00 UTC


241100Z 2412/2512 25006KT 9999 SCT040
BECMG 2418/2420 VRB02KT
PROB30
TEMPO 2503/2509 SHRA BKN045TCU
BECMG 2503/2505 26007KT
No reported NOTAMs for that airfield.



MET'MAP, your aeronautical weather chart ! - Copyright ORBIFLY December 2007 - Disclaimer

ORBIFLY MET'MAP TEAM :

Programming & Development : Alexandra Zaïnal
Concept & Development : Baudouin d'Aumeries
Co-Development & Prog : Marc-Olivier Méhu
Technical & hardware support : Manuel Goepfert

Contact : metmap@orbifly.com




SOURCES & CREDITS :

   NOAA